Погода Узудна 2 недели

Марракеш, Марокко

25 июля-07 августа
  • 25июля
    Сегодня
    +23°
    +45°
    Практически безоблачно
    ВремяПогодаТемператураВлажностьДавлениеВетер, м/сВероятность осадков
    01:00Небольшая облачность+35°C16 %725 мм1.5 м/с2 %
    04:00Небольшая облачность+31°C19 %724 мм1.4 м/с2 %
    07:00Практически безоблачно+29°C16 %724 мм2.2 м/с2 %
    10:00Ясно и безоблачно+36°C13 %724 мм1.2 м/с2 %
    13:00Практически безоблачно+43°C7 %724 мм3.0 м/с2 %
    16:00Небольшая облачность+44°C6 %722 мм6.6 м/с2 %
    19:00Практически безоблачно+42°C12 %722 мм6.4 м/с2 %
    22:00Ясно и безоблачно+35°C17 %723 мм3.7 м/с2 %
  • 26июля
    Пятница
    +21°
    +42°
    Ясно и безоблачно
    ВремяПогодаТемператураВлажностьДавлениеВетер, м/сВероятность осадков
    01:00Ясно и безоблачно+31°C20 %723 мм2.0 м/с2 %
    04:00Ясно и безоблачно+28°C24 %722 мм0.7 м/с2 %
    07:00Ясно и безоблачно+24°C31 %722 мм1.1 м/с2 %
    10:00Ясно и безоблачно+31°C22 %723 мм1.4 м/с2 %
    13:00Ясно и безоблачно+38°C8 %722 мм2.1 м/с2 %
    16:00Ясно и безоблачно+41°C6 %721 мм3.2 м/с2 %
    19:00Ясно и безоблачно+39°C14 %721 мм5.9 м/с2 %
    22:00Ясно и безоблачно+31°C34 %723 мм3.1 м/с2 %
  • 27июля
    Суббота
    +21°
    +39°
    Ясно и безоблачно
    ВремяПогодаТемператураВлажностьДавлениеВетер, м/сВероятность осадков
    01:00Ясно и безоблачно+28°C44 %723 мм1.8 м/с2 %
    04:00Ясно и безоблачно+25°C52 %722 мм1.5 м/с2 %
    07:00Ясно и безоблачно+21°C75 %722 мм2.3 м/с2 %
    10:00Ясно и безоблачно+26°C52 %723 мм2.4 м/с2 %
    13:00Ясно и безоблачно+34°C27 %722 мм3.3 м/с2 %
    16:00Ясно и безоблачно+37°C19 %721 мм3.8 м/с2 %
    19:00Ясно и безоблачно+38°C21 %721 мм3.5 м/с2 %
    22:00Практически безоблачно+31°C46 %723 мм3.5 м/с2 %
  • 28июля
    Воскресенье
    +22°
    +40°
    Облачно с прояснениями
    ВремяПогодаТемператураВлажностьДавлениеВетер, м/сВероятность осадков
    01:00Ясно и безоблачно+27°C58 %723 мм1.7 м/с2 %
    04:00Ясно и безоблачно+25°C72 %722 мм2.9 м/с2 %
    07:00Ясно и безоблачно+22°C82 %723 мм2.2 м/с2 %
    10:00Ясно и безоблачно+25°C60 %723 мм2.0 м/с2 %
    13:00Облачно с прояснениями+34°C36 %723 мм1.7 м/с2 %
    16:00Облачно с прояснениями+39°C21 %721 мм0.4 м/с2 %
    19:00Небольшая облачность+40°C18 %721 мм1.2 м/с4 %
    22:00Небольшая облачность+32°C36 %722 мм5.1 м/с2 %
  • 29июля
    Понедельник
    +23°
    +41°
    Практически безоблачно
    ВремяПогодаТемператураВлажностьДавлениеВетер, м/сВероятность осадков
    01:00Практически безоблачно+27°C57 %722 мм4.0 м/с2 %
    04:00Ясно и безоблачно+24°C73 %722 мм1.5 м/с2 %
    07:00Ясно и безоблачно+23°C83 %723 мм1.5 м/с2 %
    10:00Ясно и безоблачно+28°C57 %724 мм1.6 м/с2 %
    13:00Практически безоблачно+36°C32 %723 мм2.3 м/с2 %
    16:00Облачно с прояснениями+39°C22 %722 мм3.2 м/с2 %
    19:00Небольшая облачность+41°C17 %722 мм3.0 м/с2 %
    22:00Практически безоблачно+32°C37 %724 мм1.6 м/с2 %
Мы используем cookies
Соглашаюсь